Leverburgh, United Kingdom
Current Conditions -  °F | °C
As of 1:50 PM on Monday 24 Nov 2014 (Local Time) from EGPL Reporting Station
Light Rain Light Rain  
Wind Chill: 42°   Ceiling: 500
Heat Index: 48°   Visibility: 2.5mi
Dew Point: 48°   Wind: 17mph
Humidity: 100%   Direction: 190°S
Pressure: 30.06"   Gusts: NA
Location:  57.77°N, 7.01°W
Report Text: EGPL 241350Z 19015KT 4000 -RADZ OVC005 09/09 Q1018
Loading
Personal Weather Stations






























Interactive Weather Map New forecast layout! Learn more

10-Day Weather Forecast

Advertisements
Track Severe Weather on mobile